Watson, Iowa
Current Conditions -  °F | °C
As of 3:55 PM on Wednesday 28 Jan 2015 (Local Time) from KPDC Reporting Station
Clear Clear  
Wind Chill: 27°   Ceiling: Unl
Heat Index: 35°   Visibility: 10mi
Dew Point: 22°   Wind: 12mph
Humidity: 58%   Direction: 130°SE
Pressure: 29.87"   Gusts: 17mph
Location:  43.0888°N, 91.4288°W
Report Text: KPDC 282155Z AUTO 13010G15KT 10SM CLR 02/M06 A2987 RMK AO2 T00191056
Loading
Personal Weather Stations






























Interactive Weather Map New forecast layout! Learn more

10-Day Weather Forecast

Advertisements
Track Severe Weather on mobile